Terminal Aerodrome Forecast
Issued by NWS Sioux Falls, SD

Home | Current Version | Previous Version | Graphics & Text | Print | Product List | Glossary Off
Versions: 1 2 3 4 5 6 7 8 9 10 11 12 13 14 15 16 17 18 19 20 21 22 23 24 25 26 27 28 29 30 31 32

000
FTUS43 KFSD 221738 AAB
TAFSUX
TAF AMD
KSUX 221738Z 2218/2318 35027G37KT 1/4SM +SN BLSN OVC005
     FM222000 34025G33KT 1/2SM -SN BLSN OVC008
     FM230000 34024G33KT 1SM -SN BLSN OVC015
     FM230200 34022G30KT 3SM BLSN VCSH OVC015
     FM230400 34019G27KT P6SM OVC010
     FM230900 33015G23KT P6SM BKN010=

USA.gov is the U.S. government's official web portal to all federal, state and local government web resources and services.